Time;durP1;ratioP1;P1;durP2;ratioP2;P2;SDS_P1;SDS_P2;PMS_P1;PMS_P2;Temp;Humidity;BMP_temperature;BMP_pressure;BME280_temperature;BME280_humidity;BME280_pressure;Samples;Min_cycle;Max_cycle;Signal;HPM_P1;HPM_P2
2022/03/05 00:00:13;;;;;;;7.40;5.40;;;16.90;44.40;17.70;101232.00;;;;5027979;28;20178;-49
2022/03/05 00:02:39;;;;;;;7.40;5.67;;;16.90;44.50;17.50;101236.00;;;;5028415;28;20191;-44
2022/03/05 00:05:05;;;;;;;7.33;5.43;;;16.90;44.60;17.70;101226.00;;;;5027701;28;20191;-43
2022/03/05 00:07:31;;;;;;;6.07;5.07;;;16.80;44.50;17.70;101227.00;;;;5027404;28;20254;-44
2022/03/05 00:09:56;;;;;;;7.27;5.50;;;16.80;44.70;17.60;101239.00;;;;5027071;28;20170;-45
2022/03/05 00:12:22;;;;;;;6.70;5.40;;;16.80;44.70;17.60;101235.00;;;;5026665;28;20175;-45
2022/03/05 00:14:48;;;;;;;7.00;5.17;;;16.70;44.80;17.60;101233.00;;;;5027098;28;20202;-45
2022/03/05 00:17:14;;;;;;;5.70;4.90;;;16.70;45.00;17.60;101235.00;;;;5026937;28;20682;-44
2022/03/05 00:19:39;;;;;;;6.43;5.10;;;16.60;45.00;17.50;101232.00;;;;5027110;28;20167;-45
2022/03/05 00:22:05;;;;;;;7.60;5.10;;;16.60;45.00;17.50;101231.00;;;;5026551;28;20187;-45
2022/03/05 00:24:31;;;;;;;5.60;5.10;;;16.60;45.20;17.50;101232.00;;;;5025927;28;20230;-46
2022/03/05 00:26:57;;;;;;;5.40;4.73;;;16.50;45.20;17.40;101230.00;;;;5025215;28;20217;-47
2022/03/05 00:29:24;;;;;;;5.70;5.17;;;16.50;45.10;17.40;101229.00;;;;5026902;28;20247;-45
2022/03/05 00:31:49;;;;;;;6.13;5.53;;;16.50;45.20;17.30;101227.00;;;;5026997;28;20171;-46
2022/03/05 00:34:15;;;;;;;6.27;4.87;;;16.50;45.40;17.30;101222.00;;;;5026591;28;20198;-47
2022/03/05 00:36:41;;;;;;;5.83;4.87;;;16.40;45.50;17.30;101236.00;;;;5026919;28;20238;-46
2022/03/05 00:39:07;;;;;;;5.83;4.83;;;16.40;45.50;17.20;101240.00;;;;5027453;28;20174;-45
2022/03/05 00:41:32;;;;;;;5.63;5.03;;;16.40;45.60;17.30;101234.00;;;;5027412;28;20178;-45
2022/03/05 00:43:58;;;;;;;5.40;4.90;;;16.40;45.70;17.30;101235.00;;;;5027168;28;20206;-47
2022/03/05 00:46:24;;;;;;;5.67;5.00;;;16.40;45.60;17.30;101231.00;;;;5027321;28;20588;-46
2022/03/05 00:48:49;;;;;;;5.07;4.63;;;16.50;45.60;17.30;101238.00;;;;5027293;28;20182;-44
2022/03/05 00:51:15;;;;;;;5.63;5.10;;;16.40;45.30;17.30;101234.00;;;;5026742;28;20232;-46
2022/03/05 00:53:41;;;;;;;5.60;4.80;;;16.50;45.50;17.30;101226.00;;;;5026660;28;20191;-45
2022/03/05 00:56:07;;;;;;;6.00;5.20;;;16.40;45.30;17.30;101232.00;;;;5027225;28;20720;-46
2022/03/05 00:58:32;;;;;;;7.37;5.30;;;16.50;45.50;17.30;101235.00;;;;5009740;28;20186;-44
2022/03/05 01:00:58;;;;;;;5.43;4.93;;;16.50;45.40;17.30;101232.00;;;;5026490;28;20175;-44
2022/03/05 01:03:24;;;;;;;5.40;4.90;;;16.40;45.30;17.30;101230.00;;;;5027385;28;20211;-45
2022/03/05 01:05:50;;;;;;;5.63;5.13;;;16.50;45.30;17.20;101219.00;;;;5026911;28;20178;-44
2022/03/05 01:08:16;;;;;;;5.20;4.70;;;16.40;45.30;17.20;101221.00;;;;5025571;28;20167;-47
2022/03/05 01:10:41;;;;;;;5.60;5.00;;;16.40;45.20;17.20;101216.00;;;;5026815;28;20174;-46
2022/03/05 01:13:08;;;;;;;5.20;4.70;;;16.40;45.30;17.20;101213.00;;;;5034554;28;20746;-46
2022/03/05 01:15:33;;;;;;;5.20;4.73;;;16.40;45.30;17.20;101214.00;;;;5028047;28;20185;-45
2022/03/05 01:17:59;;;;;;;5.67;5.17;;;16.40;45.40;17.20;101207.00;;;;5026885;28;20170;-46
2022/03/05 01:20:25;;;;;;;5.70;5.20;;;16.40;45.40;17.20;101210.00;;;;5026435;28;20202;-47
2022/03/05 01:22:50;;;;;;;5.50;4.90;;;16.40;45.40;17.20;101207.00;;;;5026222;28;20214;-46
2022/03/05 01:25:16;;;;;;;5.27;4.77;;;16.40;45.40;17.10;101206.00;;;;5026270;28;20163;-44
2022/03/05 01:27:42;;;;;;;5.50;5.00;;;16.30;45.30;17.10;101214.00;;;;5026605;28;20170;-45
2022/03/05 01:30:08;;;;;;;5.50;5.00;;;16.30;45.40;17.10;101208.00;;;;5026715;28;20600;-45
2022/03/05 01:32:34;;;;;;;5.83;5.17;;;16.30;45.30;17.10;101212.00;;;;5026750;28;20214;-45
2022/03/05 01:35:00;;;;;;;5.90;5.30;;;16.30;45.40;17.10;101208.00;;;;5031876;28;20186;-45
2022/03/05 01:37:25;;;;;;;5.97;5.37;;;16.30;45.40;17.10;101208.00;;;;5030892;28;20659;-44
2022/03/05 01:39:51;;;;;;;5.70;4.83;;;16.30;45.40;17.10;101208.00;;;;5030502;28;20171;-45
2022/03/05 01:42:20;;;;;;;5.70;5.20;;;16.10;45.30;17.00;101201.00;;;;5030941;28;20186;-45
2022/03/05 01:44:46;;;;;;;5.80;5.30;;;16.20;45.50;17.00;101203.00;;;;5030700;28;20817;-47
2022/03/05 01:47:12;;;;;;;5.47;4.97;;;16.20;45.50;17.00;101204.00;;;;5030598;28;20223;-46
2022/03/05 01:49:38;;;;;;;5.60;5.10;;;16.20;45.50;17.00;101191.00;;;;5029942;28;20167;-45
2022/03/05 01:52:03;;;;;;;5.90;5.33;;;16.20;45.60;17.00;101199.00;;;;5030130;28;20170;-45
2022/03/05 01:54:29;;;;;;;5.70;5.20;;;16.10;45.50;16.90;101199.00;;;;5030197;28;20245;-46
2022/03/05 01:56:55;;;;;;;6.20;5.40;;;16.10;45.50;16.90;101197.00;;;;5030490;28;20210;-46
2022/03/05 01:59:21;;;;;;;6.00;5.10;;;16.10;45.50;16.90;101196.00;;;;5030443;28;20182;-45
2022/03/05 02:01:46;;;;;;;5.50;5.00;;;16.00;45.50;16.90;101202.00;;;;5028944;28;20758;-45
2022/03/05 02:04:12;;;;;;;5.43;4.93;;;16.00;45.60;16.90;101198.00;;;;5031043;28;20206;-44
2022/03/05 02:06:38;;;;;;;5.90;5.40;;;16.10;45.70;16.80;101204.00;;;;5030908;28;20175;-44
2022/03/05 02:09:04;;;;;;;5.60;5.10;;;16.00;45.70;16.80;101201.00;;;;5030955;28;20171;-45
2022/03/05 02:11:29;;;;;;;5.83;5.23;;;16.00;45.70;16.80;101205.00;;;;5031676;28;20171;-45
2022/03/05 02:13:55;;;;;;;5.67;5.17;;;16.00;45.70;16.80;101201.00;;;;5030505;28;20191;-44
2022/03/05 02:16:22;;;;;;;5.80;5.30;;;15.90;45.70;16.70;101199.00;;;;5030829;28;20721;-44
2022/03/05 02:18:49;;;;;;;6.10;5.50;;;15.90;45.70;16.70;101197.00;;;;5030950;28;20222;-45
2022/03/05 02:21:15;;;;;;;5.80;5.30;;;15.90;45.70;16.70;101202.00;;;;5030625;28;20167;-47
2022/03/05 02:23:41;;;;;;;5.70;5.20;;;15.80;45.60;16.70;101191.00;;;;5030112;28;20807;-44
2022/03/05 02:26:06;;;;;;;6.20;5.60;;;15.90;45.60;16.60;101192.00;;;;5029744;28;20178;-45
2022/03/05 02:28:33;;;;;;;5.83;5.33;;;15.80;45.60;16.60;101194.00;;;;5031745;28;20246;-44
2022/03/05 02:30:59;;;;;;;5.77;5.27;;;15.80;45.60;16.60;101192.00;;;;5030469;28;20167;-44
2022/03/05 02:33:25;;;;;;;6.00;5.50;;;15.80;45.70;16.60;101194.00;;;;5030602;28;20197;-45
2022/03/05 02:35:51;;;;;;;5.80;5.20;;;15.80;45.70;16.60;101177.00;;;;5030425;28;20171;-47
2022/03/05 02:38:20;;;;;;;6.17;5.57;;;15.80;46.30;16.60;101190.00;;;;5029430;28;20178;-45
2022/03/05 02:40:47;;;;;;;5.77;5.27;;;15.70;45.70;16.50;101185.00;;;;5030012;28;20181;-43
2022/03/05 02:43:13;;;;;;;5.57;5.07;;;15.70;45.70;16.50;101183.00;;;;5029383;28;20207;-45
2022/03/05 02:45:39;;;;;;;5.67;5.17;;;15.70;45.70;16.50;101190.00;;;;5029225;28;20175;-45
2022/03/05 02:48:07;;;;;;;5.87;5.30;;;15.70;45.70;16.50;101184.00;;;;5028460;28;20210;-45
2022/03/05 02:50:33;;;;;;;6.00;5.43;;;15.70;45.70;16.50;101191.00;;;;5031094;28;20171;-45
2022/03/05 02:52:58;;;;;;;5.87;5.37;;;15.70;45.70;16.50;101194.00;;;;5028873;28;20197;-44
2022/03/05 02:55:24;;;;;;;6.00;5.30;;;15.60;45.70;16.50;101190.00;;;;5028000;28;20667;-45
2022/03/05 02:57:50;;;;;;;6.30;5.70;;;15.60;45.70;16.40;101193.00;;;;5027394;28;20702;-45
2022/03/05 03:00:15;;;;;;;6.70;5.90;;;15.60;45.80;16.40;101181.00;;;;5028824;28;20230;-45
2022/03/05 03:02:44;;;;;;;6.47;5.80;;;15.60;45.90;16.40;101173.00;;;;5028154;28;20190;-44
2022/03/05 03:05:10;;;;;;;6.20;5.60;;;15.60;45.90;16.40;101188.00;;;;5028680;28;20266;-48
2022/03/05 03:07:36;;;;;;;5.83;5.33;;;15.60;45.80;16.30;101184.00;;;;5028441;28;20266;-44
2022/03/05 03:10:03;;;;;;;6.17;5.57;;;15.50;45.80;16.30;101189.00;;;;5028541;28;20707;-45
2022/03/05 03:12:29;;;;;;;6.40;5.80;;;15.50;45.80;16.30;101187.00;;;;5028721;28;20171;-45
2022/03/05 03:14:55;;;;;;;6.57;5.97;;;15.50;45.80;16.30;101180.00;;;;5028819;28;20187;-45
2022/03/05 03:17:20;;;;;;;6.37;5.77;;;15.50;45.90;16.30;101177.00;;;;5028958;28;20179;-46
2022/03/05 03:19:46;;;;;;;6.20;5.60;;;15.50;46.60;16.30;101178.00;;;;5028711;28;20867;-45
2022/03/05 03:22:12;;;;;;;6.60;6.00;;;15.40;45.90;16.20;101171.00;;;;5028905;28;20202;-45
2022/03/05 03:24:37;;;;;;;6.40;5.80;;;15.40;45.90;16.20;101175.00;;;;5028494;28;20248;-44
2022/03/05 03:27:03;;;;;;;6.07;5.57;;;15.40;45.90;16.20;101179.00;;;;5029354;28;20760;-45
2022/03/05 03:29:29;;;;;;;6.70;6.00;;;15.40;46.00;16.20;101176.00;;;;5028465;28;20182;-47
2022/03/05 03:31:54;;;;;;;6.23;5.63;;;15.40;46.00;16.20;101168.00;;;;5028778;28;20226;-45
2022/03/05 03:34:20;;;;;;;6.43;5.83;;;15.30;46.10;16.20;101179.00;;;;5028246;28;20179;-46
2022/03/05 03:36:46;;;;;;;6.30;5.70;;;15.30;45.90;16.10;101167.00;;;;5028884;28;20699;-46
2022/03/05 03:39:12;;;;;;;6.67;6.07;;;15.30;45.90;16.10;101179.00;;;;5029418;28;20201;-46
2022/03/05 03:41:37;;;;;;;6.07;5.50;;;15.30;46.00;16.10;101178.00;;;;5029124;28;20171;-46
2022/03/05 03:44:03;;;;;;;5.87;5.37;;;15.30;46.70;16.10;101177.00;;;;5026774;28;20683;-46
2022/03/05 03:46:29;;;;;;;5.97;5.37;;;15.20;45.90;16.10;101172.00;;;;5029009;28;20719;-45
2022/03/05 03:48:55;;;;;;;6.57;5.97;;;15.20;45.90;16.10;101187.00;;;;5027278;28;20171;-45
2022/03/05 03:51:20;;;;;;;6.63;5.93;;;15.20;45.90;16.10;101198.00;;;;5028270;28;20167;-45
2022/03/05 03:53:46;;;;;;;6.10;5.50;;;15.20;46.00;16.10;101181.00;;;;5026196;28;20194;-45
2022/03/05 03:56:13;;;;;;;6.47;5.87;;;15.20;46.10;16.00;101178.00;;;;5027426;28;20179;-47
2022/03/05 03:58:38;;;;;;;6.40;5.80;;;15.20;46.20;16.00;101182.00;;;;5029836;28;20545;-44
2022/03/05 04:01:04;;;;;;;6.67;6.07;;;15.20;46.20;16.00;101190.00;;;;5031624;28;20179;-44
2022/03/05 04:03:30;;;;;;;6.40;5.80;;;15.10;46.00;15.90;101181.00;;;;5027787;28;20206;-44
2022/03/05 04:05:56;;;;;;;7.20;6.50;;;15.10;46.20;15.90;101181.00;;;;5027940;28;20213;-44
2022/03/05 04:11:07;;;;;;;6.80;6.20;;;15.10;46.20;15.90;101182.00;;;;5029131;28;20159;-45
2022/03/05 04:13:33;;;;;;;6.33;5.73;;;15.10;46.20;15.90;101191.00;;;;5027297;28;20190;-46
2022/03/05 04:15:58;;;;;;;6.03;5.43;;;15.00;46.10;15.90;101189.00;;;;5028406;28;20175;-45
2022/03/05 04:18:24;;;;;;;6.50;5.90;;;15.10;46.10;15.80;101194.00;;;;5027472;28;20687;-47
2022/03/05 04:20:50;;;;;;;5.77;5.27;;;15.00;46.10;15.80;101182.00;;;;5027217;28;20178;-44
2022/03/05 04:23:15;;;;;;;6.63;6.03;;;15.00;46.10;15.80;101190.00;;;;5026955;28;20241;-46
2022/03/05 04:25:41;;;;;;;6.57;5.97;;;15.00;46.10;15.70;101193.00;;;;5027374;28;20167;-46
2022/03/05 04:28:07;;;;;;;7.10;6.40;;;15.00;46.10;15.80;101200.00;;;;5026762;28;20171;-46
2022/03/05 04:30:33;;;;;;;6.50;5.90;;;15.00;46.10;15.80;101199.00;;;;5026966;28;20777;-46
2022/03/05 04:32:58;;;;;;;6.53;5.57;;;15.00;46.10;15.80;101190.00;;;;5026637;28;20254;-44
2022/03/05 04:35:24;;;;;;;7.03;5.97;;;15.00;46.10;15.80;101197.00;;;;5027276;28;20178;-46
2022/03/05 04:37:51;;;;;;;6.23;5.67;;;14.90;46.00;15.80;101203.00;;;;5026972;28;20171;-44
2022/03/05 04:40:17;;;;;;;6.87;5.80;;;14.90;46.00;15.80;101207.00;;;;5027118;28;20257;-45
2022/03/05 04:42:42;;;;;;;7.73;6.20;;;14.90;46.00;15.80;101205.00;;;;5026501;28;20281;-45
2022/03/05 04:45:09;;;;;;;6.40;5.80;;;14.90;45.80;15.80;101218.00;;;;5026689;28;20194;-44
2022/03/05 04:47:36;;;;;;;6.43;5.83;;;14.90;46.00;15.80;101206.00;;;;5027531;28;20199;-44
2022/03/05 04:50:01;;;;;;;6.83;5.90;;;14.80;46.00;15.80;101209.00;;;;5027230;28;20171;-44
2022/03/05 04:52:27;;;;;;;6.20;5.60;;;14.80;45.90;15.80;101206.00;;;;5021227;28;20656;-44
2022/03/05 04:54:53;;;;;;;6.40;5.80;;;14.80;46.00;15.80;101208.00;;;;5015140;28;20230;-41
2022/03/05 04:57:19;;;;;;;7.27;5.97;;;14.80;45.90;15.80;101217.00;;;;5006224;28;20195;-44
2022/03/05 04:59:44;;;;;;;6.50;5.87;;;14.80;45.90;15.80;101150.00;;;;5007346;28;20176;-45
2022/03/05 05:02:10;;;;;;;7.63;6.27;;;14.70;45.80;15.80;101221.00;;;;5006602;28;20180;-44
2022/03/05 05:04:36;;;;;;;6.17;5.57;;;14.70;45.90;15.70;101206.00;;;;5006368;28;20765;-43
2022/03/05 05:07:02;;;;;;;6.63;6.03;;;14.70;45.80;15.70;101209.00;;;;5007203;28;20198;-46
2022/03/05 05:09:27;;;;;;;6.40;5.70;;;14.70;45.80;15.70;101224.00;;;;5006417;28;20210;-47
2022/03/05 05:11:53;;;;;;;6.60;6.00;;;14.70;45.80;15.70;101219.00;;;;5006209;28;20171;-45
2022/03/05 05:14:19;;;;;;;6.67;5.97;;;14.70;45.70;15.70;101212.00;;;;5005950;28;20595;-45
2022/03/05 05:16:44;;;;;;;6.83;6.13;;;14.70;45.80;15.70;101213.00;;;;5006464;28;20186;-44
2022/03/05 05:19:27;;;;;;;7.03;6.33;;;14.60;45.80;15.70;101208.00;;;;5006614;28;20171;-45
2022/03/05 05:21:57;;;;;;;7.47;6.70;;;14.60;45.80;15.60;101207.00;;;;5019736;28;20779;-46
2022/03/05 05:24:24;;;;;;;7.90;7.10;;;14.60;45.70;15.60;101219.00;;;;5021275;28;20211;-46
2022/03/05 05:26:50;;;;;;;7.50;6.80;;;14.60;46.20;15.60;101216.00;;;;5006808;28;20703;-44
2022/03/05 05:29:16;;;;;;;7.10;6.40;;;14.50;45.40;15.60;101225.00;;;;5006373;28;20179;-45
2022/03/05 05:31:42;;;;;;;7.83;7.03;;;14.50;45.20;15.60;101214.00;;;;5006366;28;20167;-45
2022/03/05 05:34:07;;;;;;;8.10;6.23;;;14.50;45.30;15.60;101217.00;;;;5007019;28;20199;-44
2022/03/05 05:36:33;;;;;;;8.87;7.17;;;14.50;45.30;15.60;101218.00;;;;5007534;28;20532;-46
2022/03/05 05:38:59;;;;;;;9.67;7.17;;;14.50;45.30;15.50;101218.00;;;;5009377;28;20227;-45
2022/03/05 05:41:25;;;;;;;7.97;6.60;;;14.50;45.20;15.50;101229.00;;;;5009548;28;20175;-45
2022/03/05 05:43:50;;;;;;;7.67;6.40;;;14.50;45.20;15.50;101224.00;;;;5022915;28;20558;-46
2022/03/05 05:46:16;;;;;;;8.00;6.10;;;14.50;45.20;15.50;101219.00;;;;5007378;28;20225;-45
2022/03/05 05:48:42;;;;;;;7.60;6.80;;;14.40;45.10;15.50;101234.00;;;;5009429;28;20172;-44
2022/03/05 05:51:07;;;;;;;10.10;6.43;;;14.40;45.20;15.50;101225.00;;;;5006364;28;20160;-46
2022/03/05 05:53:33;;;;;;;7.53;6.53;;;14.40;45.20;15.50;101239.00;;;;5005930;28;20250;-45
2022/03/05 05:55:59;;;;;;;6.83;6.13;;;14.40;45.10;15.50;101237.00;;;;5006423;28;20763;-45
2022/03/05 05:58:24;;;;;;;6.90;6.20;;;14.40;45.20;15.40;101244.00;;;;5005963;28;20180;-45
2022/03/05 06:00:50;;;;;;;9.47;6.63;;;14.40;45.30;15.40;101237.00;;;;5005494;28;20172;-45
2022/03/05 06:03:16;;;;;;;6.67;5.93;;;14.40;45.30;15.40;101228.00;;;;5005454;28;20203;-45
2022/03/05 06:05:42;;;;;;;6.73;6.13;;;14.40;45.10;15.40;101230.00;;;;5007743;28;20187;-46
2022/03/05 06:08:08;;;;;;;7.00;6.17;;;14.40;45.30;15.40;101230.00;;;;5006721;28;20188;-44
2022/03/05 06:10:34;;;;;;;7.00;6.30;;;14.40;45.10;15.40;101237.00;;;;5013027;28;20727;-45
2022/03/05 06:12:59;;;;;;;7.87;5.93;;;14.40;45.30;15.40;101236.00;;;;5026296;28;20187;-45
2022/03/05 06:15:25;;;;;;;7.47;5.87;;;14.30;45.20;15.40;101229.00;;;;5028089;28;20544;-45
2022/03/05 06:17:54;;;;;;;8.53;6.30;;;14.40;45.30;15.30;101232.00;;;;5028539;28;20171;-45
2022/03/05 06:20:20;;;;;;;7.27;6.40;;;14.30;45.20;15.30;101238.00;;;;5028500;28;20198;-45
2022/03/05 06:22:46;;;;;;;6.40;5.80;;;14.30;45.20;15.30;101230.00;;;;5028230;28;20217;-45
2022/03/05 06:25:11;;;;;;;6.50;5.77;;;14.30;45.40;15.30;101235.00;;;;5031746;28;20226;-44
2022/03/05 06:27:37;;;;;;;6.47;5.73;;;14.30;45.20;15.30;101223.00;;;;5033194;28;20182;-45
2022/03/05 06:30:03;;;;;;;7.43;5.97;;;14.20;45.20;15.30;101234.00;;;;5033013;28;20515;-42
2022/03/05 06:32:29;;;;;;;6.23;5.63;;;14.20;45.30;15.30;101230.00;;;;5032235;28;20178;-44
2022/03/05 06:34:55;;;;;;;8.67;5.90;;;14.20;45.30;15.10;101228.00;;;;5031802;28;20676;-44
2022/03/05 06:37:23;;;;;;;6.70;5.87;;;14.20;45.30;15.20;101234.00;;;;5034820;28;20179;-44
2022/03/05 06:39:49;;;;;;;6.20;5.60;;;14.10;45.10;15.20;101235.00;;;;5032390;28;20241;-44
2022/03/05 06:42:15;;;;;;;6.47;5.87;;;14.20;45.20;15.20;101236.00;;;;5033343;28;20261;-44
2022/03/05 06:44:42;;;;;;;6.10;5.50;;;14.20;45.30;15.20;101237.00;;;;5031156;28;20194;-45
2022/03/05 06:47:07;;;;;;;6.43;5.73;;;14.10;45.30;15.20;101237.00;;;;5034435;28;20187;-45
2022/03/05 06:49:33;;;;;;;6.43;5.80;;;14.10;45.30;15.20;101238.00;;;;5034806;28;20640;-45
2022/03/05 06:51:59;;;;;;;6.27;5.67;;;14.10;45.30;15.20;101231.00;;;;5034756;28;20194;-45
2022/03/05 06:54:25;;;;;;;6.07;5.47;;;14.10;45.30;15.20;101234.00;;;;5034657;28;20203;-44
2022/03/05 06:56:51;;;;;;;6.03;5.43;;;14.10;45.30;15.10;101237.00;;;;5034125;28;20222;-45
2022/03/05 06:59:17;;;;;;;6.20;5.60;;;14.10;45.40;15.10;101237.00;;;;5034245;28;20183;-44
2022/03/05 07:01:43;;;;;;;6.10;5.60;;;14.10;45.30;15.10;101242.00;;;;5035541;28;20175;-45
2022/03/05 07:04:08;;;;;;;6.43;5.33;;;14.00;45.30;15.10;101249.00;;;;5033094;28;20261;-46
2022/03/05 07:06:34;;;;;;;6.00;5.50;;;14.00;45.30;15.10;101251.00;;;;5031926;28;20159;-45
2022/03/05 07:09:00;;;;;;;6.33;5.67;;;14.00;45.30;15.10;101246.00;;;;5031874;28;20625;-45
2022/03/05 07:11:26;;;;;;;5.83;5.33;;;14.00;45.30;15.10;101257.00;;;;5031587;28;20175;-43
2022/03/05 07:13:51;;;;;;;5.87;5.27;;;14.00;45.30;15.10;101244.00;;;;5033624;28;20202;-45
2022/03/05 07:16:17;;;;;;;6.00;5.40;;;14.00;45.30;15.10;101259.00;;;;5033665;28;20183;-44
2022/03/05 07:18:43;;;;;;;5.77;5.23;;;13.90;45.20;15.00;101245.00;;;;5034299;28;20179;-45
2022/03/05 07:21:08;;;;;;;5.97;5.37;;;14.00;45.30;15.00;101248.00;;;;5033045;28;20172;-44
2022/03/05 07:23:34;;;;;;;6.10;5.53;;;13.90;45.20;15.00;101257.00;;;;5031655;28;20206;-44
2022/03/05 07:26:00;;;;;;;5.70;5.20;;;13.90;45.20;15.00;101252.00;;;;5035938;28;20233;-44
2022/03/05 07:28:26;;;;;;;6.17;5.57;;;13.90;45.20;15.00;101249.00;;;;5031341;28;20178;-44
2022/03/05 07:30:52;;;;;;;6.20;5.60;;;13.90;45.20;15.00;101260.00;;;;5034252;28;20189;-44
2022/03/05 07:33:18;;;;;;;5.67;5.17;;;13.90;45.80;14.90;101254.00;;;;5034042;28;20290;-45
2022/03/05 07:35:43;;;;;;;5.80;5.30;;;13.90;45.20;14.90;101257.00;;;;5033711;28;20179;-44
2022/03/05 07:38:09;;;;;;;5.93;5.43;;;13.90;45.80;14.90;101264.00;;;;5034415;28;20823;-45
2022/03/05 07:40:35;;;;;;;6.30;5.73;;;13.90;45.20;14.90;101273.00;;;;5034231;28;20167;-44
2022/03/05 07:43:01;;;;;;;6.10;5.50;;;13.90;45.20;14.90;101270.00;;;;5033663;28;20226;-45
2022/03/05 07:45:26;;;;;;;5.57;4.87;;;13.80;45.10;14.90;101272.00;;;;5033265;28;20194;-44
2022/03/05 07:47:52;;;;;;;5.73;5.20;;;13.90;45.30;14.90;101268.00;;;;5033443;28;20171;-44
2022/03/05 07:50:18;;;;;;;6.07;5.47;;;13.80;45.10;14.90;101264.00;;;;5031727;28;20193;-44
2022/03/05 07:52:43;;;;;;;6.53;5.70;;;13.80;45.10;14.90;101274.00;;;;5031856;28;20754;-43
2022/03/05 07:55:09;;;;;;;5.63;5.13;;;13.80;45.10;14.90;101275.00;;;;5032506;28;20195;-47
2022/03/05 07:57:35;;;;;;;5.80;5.30;;;13.80;45.10;14.80;101276.00;;;;5033517;28;20216;-46
2022/03/05 08:00:01;;;;;;;5.50;5.00;;;13.80;45.10;14.80;101275.00;;;;5033276;28;20236;-43
2022/03/05 08:02:26;;;;;;;6.00;5.40;;;13.80;45.10;14.80;101274.00;;;;5036186;28;20202;-44
2022/03/05 08:04:52;;;;;;;5.80;5.30;;;13.80;45.10;14.80;101273.00;;;;5030540;28;20641;-44
2022/03/05 08:07:18;;;;;;;5.83;5.33;;;13.80;45.20;14.80;101279.00;;;;5030890;28;20289;-46
2022/03/05 08:09:44;;;;;;;6.13;5.53;;;13.80;45.10;14.80;101287.00;;;;5031648;28;20206;-45
2022/03/05 08:12:10;;;;;;;5.80;5.27;;;13.80;45.20;14.80;101286.00;;;;5031707;28;20190;-45
2022/03/05 08:14:38;;;;;;;5.63;5.10;;;13.70;45.20;14.80;101287.00;;;;5032371;28;20567;-45
2022/03/05 08:17:04;;;;;;;5.60;5.10;;;13.70;45.20;14.80;101291.00;;;;5029490;28;20170;-44
2022/03/05 08:19:30;;;;;;;5.83;5.33;;;13.70;45.20;14.80;101291.00;;;;5030369;28;20174;-45
2022/03/05 08:21:56;;;;;;;5.80;5.30;;;13.70;45.30;14.70;101298.00;;;;5032117;28;20171;-44
2022/03/05 08:24:21;;;;;;;5.90;5.30;;;13.70;45.30;14.70;101303.00;;;;5032590;28;20218;-45
2022/03/05 08:26:47;;;;;;;5.43;4.93;;;13.70;45.40;14.70;101298.00;;;;5032428;28;20182;-50
2022/03/05 08:29:13;;;;;;;6.17;5.50;;;13.70;45.40;14.70;101302.00;;;;5032845;28;20233;-45
2022/03/05 08:31:39;;;;;;;5.73;5.23;;;13.70;45.40;14.70;101300.00;;;;5033211;28;20179;-44
2022/03/05 08:34:04;;;;;;;6.20;5.60;;;13.70;45.40;14.70;101299.00;;;;5033107;28;20203;-43
2022/03/05 08:36:32;;;;;;;6.10;5.50;;;13.70;45.50;14.70;101297.00;;;;5031695;28;20175;-45
2022/03/05 08:38:58;;;;;;;5.40;4.90;;;13.70;45.40;14.70;101312.00;;;;5031320;28;20189;-44
2022/03/05 08:41:24;;;;;;;5.87;5.37;;;13.70;45.40;14.70;101306.00;;;;5032285;28;20179;-45
2022/03/05 08:43:51;;;;;;;5.70;5.20;;;13.70;45.50;14.70;101302.00;;;;5033452;28;20750;-45
2022/03/05 08:46:17;;;;;;;5.73;5.23;;;13.70;45.50;14.70;101291.00;;;;5028607;28;20168;-45
2022/03/05 08:48:43;;;;;;;5.80;5.30;;;13.70;45.40;14.60;101296.00;;;;5029287;28;20179;-45
2022/03/05 08:51:09;;;;;;;5.90;5.40;;;13.70;45.80;14.60;101289.00;;;;5030944;28;20175;-45
2022/03/05 08:53:34;;;;;;;5.77;5.27;;;13.70;45.90;14.70;101293.00;;;;5030555;28;20210;-44
2022/03/05 08:56:00;;;;;;;5.93;5.20;;;13.70;45.80;14.60;101291.00;;;;5031689;28;20201;-45
2022/03/05 08:58:26;;;;;;;6.20;5.60;;;13.70;46.90;14.60;101281.00;;;;5030980;28;20183;-44
2022/03/05 09:00:52;;;;;;;6.23;5.63;;;13.60;46.70;14.60;101289.00;;;;5031511;28;20229;-45
2022/03/05 09:03:18;;;;;;;6.07;5.50;;;13.60;47.50;14.60;101296.00;;;;5032150;28;20280;-45
2022/03/05 09:05:45;;;;;;;5.53;5.03;;;13.60;47.60;14.60;101284.00;;;;5031525;28;20749;-44
2022/03/05 09:08:14;;;;;;;7.27;5.10;;;13.60;48.10;14.60;101284.00;;;;5034168;28;20183;-44
2022/03/05 09:10:40;;;;;;;5.60;5.10;;;13.60;48.30;14.60;101298.00;;;;5029869;28;20520;-45
2022/03/05 09:13:05;;;;;;;5.77;5.20;;;13.70;48.30;14.60;101299.00;;;;5029815;28;20171;-45
2022/03/05 09:15:31;;;;;;;7.00;5.17;;;13.60;48.50;14.60;101286.00;;;;5038600;28;20167;-45
2022/03/05 09:17:57;;;;;;;6.33;5.00;;;13.60;48.60;14.60;101294.00;;;;5021548;28;20617;-45
2022/03/05 09:20:23;;;;;;;6.20;4.87;;;13.60;48.60;14.60;101292.00;;;;5028751;28;20167;-44
2022/03/05 09:22:48;;;;;;;6.60;5.20;;;13.50;48.30;14.60;101292.00;;;;5032375;28;20199;-44
2022/03/05 09:25:14;;;;;;;7.67;5.40;;;13.60;47.80;14.60;101293.00;;;;5032187;28;20233;-44
2022/03/05 09:27:40;;;;;;;8.00;5.40;;;13.60;47.70;14.60;101292.00;;;;5032641;28;20179;-44
2022/03/05 09:30:06;;;;;;;6.23;5.33;;;13.60;47.90;14.60;101291.00;;;;5031057;28;20175;-46
2022/03/05 09:32:32;;;;;;;8.27;5.00;;;13.60;47.70;14.60;101293.00;;;;5033997;28;20186;-45
2022/03/05 09:34:59;;;;;;;7.00;5.40;;;13.60;47.50;14.60;101296.00;;;;5035784;28;20202;-45
2022/03/05 09:37:28;;;;;;;7.10;5.50;;;13.70;47.50;14.60;101294.00;;;;5031835;28;20179;-43
2022/03/05 09:39:54;;;;;;;6.37;5.63;;;13.70;47.50;14.60;101291.00;;;;5032164;28;20182;-44
2022/03/05 09:42:20;;;;;;;6.13;5.17;;;13.60;47.40;14.60;101294.00;;;;5032196;28;20961;-44
2022/03/05 09:44:45;;;;;;;6.10;5.30;;;13.60;47.30;14.60;101303.00;;;;5031875;28;20203;-44
2022/03/05 09:47:11;;;;;;;6.23;5.20;;;13.60;47.30;14.60;101297.00;;;;5032679;28;20163;-43
2022/03/05 09:49:38;;;;;;;5.77;5.17;;;13.60;47.30;14.60;101290.00;;;;5032252;28;20952;-45
2022/03/05 09:52:04;;;;;;;5.70;5.20;;;13.60;47.40;14.60;101288.00;;;;5033100;28;20555;-46
2022/03/05 09:54:30;;;;;;;5.73;5.17;;;13.60;47.60;14.50;101292.00;;;;5031661;28;20218;-45
2022/03/05 09:56:56;;;;;;;6.27;5.60;;;13.50;47.70;14.50;101291.00;;;;5030903;28;20535;-44
2022/03/05 09:59:22;;;;;;;7.13;5.30;;;13.50;47.70;14.50;101300.00;;;;5035862;28;20643;-45
2022/03/05 10:01:47;;;;;;;5.77;4.90;;;13.50;47.60;14.50;101290.00;;;;5035439;28;20175;-45
2022/03/05 10:04:24;;;;;;;5.90;5.10;;;13.50;47.70;14.50;101296.00;;;;5033944;28;20245;-45
2022/03/05 10:07:16;;;;;;;5.63;4.77;;;13.50;47.80;14.50;101297.00;;;;5035254;28;20835;-45
2022/03/05 10:09:44;;;;;;;5.80;5.20;;;13.60;47.80;14.50;101293.00;;;;5036154;28;20179;-45
2022/03/05 10:12:31;;;;;;;5.40;4.90;;;13.50;47.80;14.50;101299.00;;;;5036335;28;20202;-46
2022/03/05 10:15:05;;;;;;;6.10;5.13;;;13.50;47.90;14.50;101296.00;;;;5030967;28;20201;-46
2022/03/05 10:17:56;;;;;;;5.33;4.83;;;13.50;48.00;14.50;101296.00;;;;5036135;28;20520;-45
2022/03/05 10:20:32;;;;;;;9.17;4.70;;;13.50;48.00;14.40;101289.00;;;;5036318;28;20163;-45
2022/03/05 10:23:08;;;;;;;7.47;4.83;;;13.50;48.40;14.50;101284.00;;;;5033733;28;20746;-44
2022/03/05 10:25:37;;;;;;;7.23;5.00;;;13.70;48.50;14.30;101294.00;;;;5032315;28;20175;-45
2022/03/05 10:28:10;;;;;;;5.83;4.50;;;13.90;48.30;14.60;101294.00;;;;5033597;28;20261;-45
2022/03/05 10:30:58;;;;;;;5.80;4.40;;;14.20;47.90;14.80;101289.00;;;;5035222;28;20179;-45
2022/03/05 10:33:33;;;;;;;6.93;4.80;;;14.50;47.90;14.90;101292.00;;;;5031039;28;20753;-46
2022/03/05 10:36:22;;;;;;;6.43;4.80;;;14.70;48.30;15.00;101282.00;;;;5031622;28;20209;-46
2022/03/05 10:38:58;;;;;;;7.33;4.50;;;14.90;48.70;15.10;101280.00;;;;5031332;28;20178;-48
2022/03/05 10:41:41;;;;;;;5.30;4.60;;;15.00;48.80;15.20;101274.00;;;;5031177;28;20182;-45
2022/03/05 10:44:15;;;;;;;5.80;4.60;;;15.00;48.80;15.30;101273.00;;;;5033805;28;20218;-44
2022/03/05 10:46:48;;;;;;;8.30;4.90;;;15.00;48.60;15.30;101279.00;;;;5030463;28;20171;-45